sensor_id;sensor_type;location;lat;lon;timestamp;temperature;humidity
38726;DHT22;24474;48.906;8.808;2023-11-19T00:02:15;7.90;99.90
38726;DHT22;24474;48.906;8.808;2023-11-19T00:04:41;7.90;99.90
38726;DHT22;24474;48.906;8.808;2023-11-19T00:07:07;7.90;99.90
38726;DHT22;24474;48.906;8.808;2023-11-19T00:09:33;7.90;99.90
38726;DHT22;24474;48.906;8.808;2023-11-19T00:12:02;7.90;99.90
38726;DHT22;24474;48.906;8.808;2023-11-19T00:14:28;8.00;99.90
38726;DHT22;24474;48.906;8.808;2023-11-19T00:16:55;8.00;99.90
38726;DHT22;24474;48.906;8.808;2023-11-19T00:19:20;8.00;99.90
38726;DHT22;24474;48.906;8.808;2023-11-19T00:21:46;8.00;99.90
38726;DHT22;24474;48.906;8.808;2023-11-19T00:24:12;8.00;99.90
38726;DHT22;24474;48.906;8.808;2023-11-19T00:26:38;8.10;99.90
38726;DHT22;24474;48.906;8.808;2023-11-19T00:29:04;8.10;99.90
38726;DHT22;24474;48.906;8.808;2023-11-19T00:31:30;8.10;99.90
38726;DHT22;24474;48.906;8.808;2023-11-19T00:33:55;8.10;99.90
38726;DHT22;24474;48.906;8.808;2023-11-19T00:36:21;8.10;99.90
38726;DHT22;24474;48.906;8.808;2023-11-19T00:38:49;8.20;99.90
38726;DHT22;24474;48.906;8.808;2023-11-19T00:41:15;8.10;99.90
38726;DHT22;24474;48.906;8.808;2023-11-19T00:43:43;8.20;99.90
38726;DHT22;24474;48.906;8.808;2023-11-19T00:46:09;8.20;99.90
38726;DHT22;24474;48.906;8.808;2023-11-19T00:48:36;8.20;99.90
38726;DHT22;24474;48.906;8.808;2023-11-19T00:51:02;8.20;99.90
38726;DHT22;24474;48.906;8.808;2023-11-19T00:53:30;8.20;99.90
38726;DHT22;24474;48.906;8.808;2023-11-19T00:55:56;8.20;99.90
38726;DHT22;24474;48.906;8.808;2023-11-19T00:58:22;8.30;99.90
38726;DHT22;24474;48.906;8.808;2023-11-19T01:00:49;8.30;99.90
38726;DHT22;24474;48.906;8.808;2023-11-19T01:03:15;8.30;99.90
38726;DHT22;24474;48.906;8.808;2023-11-19T01:05:41;8.30;99.90
38726;DHT22;24474;48.906;8.808;2023-11-19T01:08:07;8.30;99.90
38726;DHT22;24474;48.906;8.808;2023-11-19T01:10:33;8.30;99.90
38726;DHT22;24474;48.906;8.808;2023-11-19T01:12:59;8.30;99.90
38726;DHT22;24474;48.906;8.808;2023-11-19T01:15:25;8.30;99.90
38726;DHT22;24474;48.906;8.808;2023-11-19T01:17:51;8.30;99.90
38726;DHT22;24474;48.906;8.808;2023-11-19T01:20:17;8.30;99.90
38726;DHT22;24474;48.906;8.808;2023-11-19T01:22:42;8.40;99.90
38726;DHT22;24474;48.906;8.808;2023-11-19T01:25:09;8.30;99.90
38726;DHT22;24474;48.906;8.808;2023-11-19T01:27:35;8.30;99.90
38726;DHT22;24474;48.906;8.808;2023-11-19T01:30:03;8.40;99.90
38726;DHT22;24474;48.906;8.808;2023-11-19T01:32:31;8.40;99.90
38726;DHT22;24474;48.906;8.808;2023-11-19T01:34:57;8.40;99.90
38726;DHT22;24474;48.906;8.808;2023-11-19T01:37:23;8.40;99.90
38726;DHT22;24474;48.906;8.808;2023-11-19T01:39:49;8.40;99.90
38726;DHT22;24474;48.906;8.808;2023-11-19T01:42:14;8.40;99.90
38726;DHT22;24474;48.906;8.808;2023-11-19T01:44:41;8.40;99.90
38726;DHT22;24474;48.906;8.808;2023-11-19T01:47:07;8.40;99.90
38726;DHT22;24474;48.906;8.808;2023-11-19T01:49:34;8.40;99.90
38726;DHT22;24474;48.906;8.808;2023-11-19T01:52:00;8.40;99.90
38726;DHT22;24474;48.906;8.808;2023-11-19T01:54:26;8.40;99.90
38726;DHT22;24474;48.906;8.808;2023-11-19T01:56:54;8.40;99.90
38726;DHT22;24474;48.906;8.808;2023-11-19T01:59:23;8.40;99.90
38726;DHT22;24474;48.906;8.808;2023-11-19T02:02:00;8.40;99.90
38726;DHT22;24474;48.906;8.808;2023-11-19T02:04:26;8.40;99.90
38726;DHT22;24474;48.906;8.808;2023-11-19T02:06:54;8.40;99.90
38726;DHT22;24474;48.906;8.808;2023-11-19T02:09:22;8.50;99.90
38726;DHT22;24474;48.906;8.808;2023-11-19T02:11:47;8.50;99.90
38726;DHT22;24474;48.906;8.808;2023-11-19T02:14:17;8.50;99.90
38726;DHT22;24474;48.906;8.808;2023-11-19T02:16:43;8.50;99.90
38726;DHT22;24474;48.906;8.808;2023-11-19T02:19:09;8.50;99.90
38726;DHT22;24474;48.906;8.808;2023-11-19T02:21:36;8.50;99.90
38726;DHT22;24474;48.906;8.808;2023-11-19T02:24:06;8.50;99.90
38726;DHT22;24474;48.906;8.808;2023-11-19T02:26:36;8.50;99.90
38726;DHT22;24474;48.906;8.808;2023-11-19T02:29:04;8.50;99.90
38726;DHT22;24474;48.906;8.808;2023-11-19T02:31:32;8.50;99.90
38726;DHT22;24474;48.906;8.808;2023-11-19T02:33:59;8.60;99.90
38726;DHT22;24474;48.906;8.808;2023-11-19T02:36:26;8.60;99.90
38726;DHT22;24474;48.906;8.808;2023-11-19T02:38:52;8.60;99.90
38726;DHT22;24474;48.906;8.808;2023-11-19T02:41:17;8.60;99.90
38726;DHT22;24474;48.906;8.808;2023-11-19T02:43:43;8.70;99.90
38726;DHT22;24474;48.906;8.808;2023-11-19T02:46:08;8.80;99.90
38726;DHT22;24474;48.906;8.808;2023-11-19T02:48:34;8.80;99.90
38726;DHT22;24474;48.906;8.808;2023-11-19T02:51:03;8.90;99.90
38726;DHT22;24474;48.906;8.808;2023-11-19T02:53:32;8.90;99.90
38726;DHT22;24474;48.906;8.808;2023-11-19T02:55:58;9.00;99.90
38726;DHT22;24474;48.906;8.808;2023-11-19T02:58:37;9.20;99.90
38726;DHT22;24474;48.906;8.808;2023-11-19T03:01:02;9.20;99.90
38726;DHT22;24474;48.906;8.808;2023-11-19T03:03:38;9.30;99.90
38726;DHT22;24474;48.906;8.808;2023-11-19T03:06:06;9.30;99.90
38726;DHT22;24474;48.906;8.808;2023-11-19T03:08:34;9.40;99.90
38726;DHT22;24474;48.906;8.808;2023-11-19T03:11:00;9.40;99.90
38726;DHT22;24474;48.906;8.808;2023-11-19T03:13:26;9.50;99.90
38726;DHT22;24474;48.906;8.808;2023-11-19T03:15:52;9.50;99.90
38726;DHT22;24474;48.906;8.808;2023-11-19T03:18:19;9.50;99.90
38726;DHT22;24474;48.906;8.808;2023-11-19T03:20:46;9.60;99.90
38726;DHT22;24474;48.906;8.808;2023-11-19T03:23:12;9.60;99.90
38726;DHT22;24474;48.906;8.808;2023-11-19T03:25:38;9.70;99.90
38726;DHT22;24474;48.906;8.808;2023-11-19T03:28:04;9.70;99.90
38726;DHT22;24474;48.906;8.808;2023-11-19T03:30:30;9.80;99.90
38726;DHT22;24474;48.906;8.808;2023-11-19T03:32:56;9.80;99.90
38726;DHT22;24474;48.906;8.808;2023-11-19T03:35:23;9.80;99.90
38726;DHT22;24474;48.906;8.808;2023-11-19T03:37:49;9.90;99.90
38726;DHT22;24474;48.906;8.808;2023-11-19T03:40:15;10.00;99.90
38726;DHT22;24474;48.906;8.808;2023-11-19T03:42:41;10.00;99.90
38726;DHT22;24474;48.906;8.808;2023-11-19T03:45:07;10.00;99.90
38726;DHT22;24474;48.906;8.808;2023-11-19T03:47:36;10.00;99.90
38726;DHT22;24474;48.906;8.808;2023-11-19T03:50:02;10.10;99.90
38726;DHT22;24474;48.906;8.808;2023-11-19T03:52:28;10.10;99.90
38726;DHT22;24474;48.906;8.808;2023-11-19T03:54:55;10.10;99.90
38726;DHT22;24474;48.906;8.808;2023-11-19T03:57:21;10.10;99.90
38726;DHT22;24474;48.906;8.808;2023-11-19T03:59:47;10.20;99.90
38726;DHT22;24474;48.906;8.808;2023-11-19T04:02:13;10.20;99.90
38726;DHT22;24474;48.906;8.808;2023-11-19T04:04:39;10.20;99.90
38726;DHT22;24474;48.906;8.808;2023-11-19T04:07:05;10.20;99.90
38726;DHT22;24474;48.906;8.808;2023-11-19T04:09:31;10.30;99.90
38726;DHT22;24474;48.906;8.808;2023-11-19T04:11:58;10.30;99.90
38726;DHT22;24474;48.906;8.808;2023-11-19T04:14:24;10.30;99.90
38726;DHT22;24474;48.906;8.808;2023-11-19T04:16:50;10.40;99.90
38726;DHT22;24474;48.906;8.808;2023-11-19T04:19:17;10.40;99.90
38726;DHT22;24474;48.906;8.808;2023-11-19T04:21:42;10.40;99.90
38726;DHT22;24474;48.906;8.808;2023-11-19T04:24:09;10.40;99.90
38726;DHT22;24474;48.906;8.808;2023-11-19T04:26:43;10.40;99.90
38726;DHT22;24474;48.906;8.808;2023-11-19T04:29:11;10.50;99.90
38726;DHT22;24474;48.906;8.808;2023-11-19T04:31:37;10.50;99.90
38726;DHT22;24474;48.906;8.808;2023-11-19T04:34:03;10.50;99.90
38726;DHT22;24474;48.906;8.808;2023-11-19T04:36:29;10.50;99.90
38726;DHT22;24474;48.906;8.808;2023-11-19T04:38:55;10.60;99.90
38726;DHT22;24474;48.906;8.808;2023-11-19T04:41:21;10.60;99.90
38726;DHT22;24474;48.906;8.808;2023-11-19T04:43:46;10.60;99.90
38726;DHT22;24474;48.906;8.808;2023-11-19T04:46:12;10.70;99.90
38726;DHT22;24474;48.906;8.808;2023-11-19T04:48:38;10.70;99.90
38726;DHT22;24474;48.906;8.808;2023-11-19T04:51:06;10.70;99.90
38726;DHT22;24474;48.906;8.808;2023-11-19T04:53:33;10.70;99.90
38726;DHT22;24474;48.906;8.808;2023-11-19T04:55:58;10.70;99.90
38726;DHT22;24474;48.906;8.808;2023-11-19T04:58:24;10.80;99.90
38726;DHT22;24474;48.906;8.808;2023-11-19T05:00:50;10.80;99.90
38726;DHT22;24474;48.906;8.808;2023-11-19T05:03:15;10.80;99.90
38726;DHT22;24474;48.906;8.808;2023-11-19T05:05:41;10.90;99.90
38726;DHT22;24474;48.906;8.808;2023-11-19T05:08:07;10.90;99.90
38726;DHT22;24474;48.906;8.808;2023-11-19T05:10:32;10.90;99.90
38726;DHT22;24474;48.906;8.808;2023-11-19T05:12:58;11.00;99.90
38726;DHT22;24474;48.906;8.808;2023-11-19T05:15:23;11.00;99.90
38726;DHT22;24474;48.906;8.808;2023-11-19T05:17:49;10.90;99.90
38726;DHT22;24474;48.906;8.808;2023-11-19T05:20:16;11.00;99.90
38726;DHT22;24474;48.906;8.808;2023-11-19T05:22:42;11.00;99.90
38726;DHT22;24474;48.906;8.808;2023-11-19T05:25:08;10.90;99.90
38726;DHT22;24474;48.906;8.808;2023-11-19T05:27:35;11.10;99.90
38726;DHT22;24474;48.906;8.808;2023-11-19T05:30:02;11.00;99.90
38726;DHT22;24474;48.906;8.808;2023-11-19T05:32:28;11.10;99.90
38726;DHT22;24474;48.906;8.808;2023-11-19T05:34:53;11.10;99.90
38726;DHT22;24474;48.906;8.808;2023-11-19T05:37:19;11.10;99.90
38726;DHT22;24474;48.906;8.808;2023-11-19T05:39:46;11.10;99.90
38726;DHT22;24474;48.906;8.808;2023-11-19T05:42:11;11.10;99.90
38726;DHT22;24474;48.906;8.808;2023-11-19T05:44:37;11.10;99.90
38726;DHT22;24474;48.906;8.808;2023-11-19T05:47:03;11.10;99.90
38726;DHT22;24474;48.906;8.808;2023-11-19T05:49:29;11.10;99.90
38726;DHT22;24474;48.906;8.808;2023-11-19T05:51:55;11.10;99.90
38726;DHT22;24474;48.906;8.808;2023-11-19T05:54:21;11.10;99.90
38726;DHT22;24474;48.906;8.808;2023-11-19T05:56:48;11.10;99.90
38726;DHT22;24474;48.906;8.808;2023-11-19T05:59:14;11.20;99.90
38726;DHT22;24474;48.906;8.808;2023-11-19T06:01:43;11.20;99.90
38726;DHT22;24474;48.906;8.808;2023-11-19T06:04:09;11.10;99.90
38726;DHT22;24474;48.906;8.808;2023-11-19T06:06:35;11.10;99.90
38726;DHT22;24474;48.906;8.808;2023-11-19T06:09:02;11.10;99.90
38726;DHT22;24474;48.906;8.808;2023-11-19T06:11:28;11.20;99.90
38726;DHT22;24474;48.906;8.808;2023-11-19T06:13:54;11.20;99.90
38726;DHT22;24474;48.906;8.808;2023-11-19T06:16:21;11.10;99.90
38726;DHT22;24474;48.906;8.808;2023-11-19T06:18:46;11.10;99.90
38726;DHT22;24474;48.906;8.808;2023-11-19T06:21:12;11.20;99.90
38726;DHT22;24474;48.906;8.808;2023-11-19T06:23:38;11.20;99.90
38726;DHT22;24474;48.906;8.808;2023-11-19T06:26:04;11.20;99.90
38726;DHT22;24474;48.906;8.808;2023-11-19T06:28:31;11.30;99.90
38726;DHT22;24474;48.906;8.808;2023-11-19T06:30:56;11.30;99.90
38726;DHT22;24474;48.906;8.808;2023-11-19T06:33:24;11.30;99.90
38726;DHT22;24474;48.906;8.808;2023-11-19T06:35:49;11.30;99.90
38726;DHT22;24474;48.906;8.808;2023-11-19T06:38:15;11.40;99.90
38726;DHT22;24474;48.906;8.808;2023-11-19T06:40:41;11.40;99.90
38726;DHT22;24474;48.906;8.808;2023-11-19T06:43:06;11.40;99.90
38726;DHT22;24474;48.906;8.808;2023-11-19T06:45:34;11.40;99.90
38726;DHT22;24474;48.906;8.808;2023-11-19T06:48:02;11.40;99.90
38726;DHT22;24474;48.906;8.808;2023-11-19T06:50:31;11.40;99.90
38726;DHT22;24474;48.906;8.808;2023-11-19T06:52:57;11.40;99.90
38726;DHT22;24474;48.906;8.808;2023-11-19T06:55:23;11.50;99.90
38726;DHT22;24474;48.906;8.808;2023-11-19T06:57:49;11.40;99.90
38726;DHT22;24474;48.906;8.808;2023-11-19T07:00:14;11.30;99.90
38726;DHT22;24474;48.906;8.808;2023-11-19T07:02:40;11.40;99.90
38726;DHT22;24474;48.906;8.808;2023-11-19T07:05:06;11.40;99.90
38726;DHT22;24474;48.906;8.808;2023-11-19T07:07:33;11.40;99.90
38726;DHT22;24474;48.906;8.808;2023-11-19T07:09:59;11.40;99.90
38726;DHT22;24474;48.906;8.808;2023-11-19T07:12:25;11.50;99.90
38726;DHT22;24474;48.906;8.808;2023-11-19T07:14:52;11.50;99.90
38726;DHT22;24474;48.906;8.808;2023-11-19T07:17:18;11.50;99.90
38726;DHT22;24474;48.906;8.808;2023-11-19T07:19:49;11.50;99.90
38726;DHT22;24474;48.906;8.808;2023-11-19T07:22:15;11.50;99.90
38726;DHT22;24474;48.906;8.808;2023-11-19T07:24:41;11.50;99.90
38726;DHT22;24474;48.906;8.808;2023-11-19T07:27:07;11.60;99.90
38726;DHT22;24474;48.906;8.808;2023-11-19T07:29:34;11.60;99.90
38726;DHT22;24474;48.906;8.808;2023-11-19T07:32:00;11.60;99.90
38726;DHT22;24474;48.906;8.808;2023-11-19T07:34:27;11.70;99.90
38726;DHT22;24474;48.906;8.808;2023-11-19T07:36:54;11.70;99.90
38726;DHT22;24474;48.906;8.808;2023-11-19T07:39:22;11.70;99.90
38726;DHT22;24474;48.906;8.808;2023-11-19T07:41:48;11.70;99.90
38726;DHT22;24474;48.906;8.808;2023-11-19T07:44:14;11.80;99.90
38726;DHT22;24474;48.906;8.808;2023-11-19T07:46:40;11.80;99.90
38726;DHT22;24474;48.906;8.808;2023-11-19T07:49:07;11.90;99.90
38726;DHT22;24474;48.906;8.808;2023-11-19T07:51:33;11.90;99.90
38726;DHT22;24474;48.906;8.808;2023-11-19T07:53:59;11.90;99.90
38726;DHT22;24474;48.906;8.808;2023-11-19T07:56:24;11.90;99.90
38726;DHT22;24474;48.906;8.808;2023-11-19T07:58:50;12.00;99.90
38726;DHT22;24474;48.906;8.808;2023-11-19T08:01:16;12.00;99.90
38726;DHT22;24474;48.906;8.808;2023-11-19T08:03:44;11.90;99.90
38726;DHT22;24474;48.906;8.808;2023-11-19T08:06:10;12.00;99.90
38726;DHT22;24474;48.906;8.808;2023-11-19T08:08:36;12.00;99.90
38726;DHT22;24474;48.906;8.808;2023-11-19T08:11:03;12.10;99.90
38726;DHT22;24474;48.906;8.808;2023-11-19T08:13:30;12.10;99.90
38726;DHT22;24474;48.906;8.808;2023-11-19T08:15:57;12.20;99.90
38726;DHT22;24474;48.906;8.808;2023-11-19T08:18:24;12.20;99.90
38726;DHT22;24474;48.906;8.808;2023-11-19T08:20:49;12.30;99.90
38726;DHT22;24474;48.906;8.808;2023-11-19T08:23:18;12.30;99.90
38726;DHT22;24474;48.906;8.808;2023-11-19T08:25:44;12.30;99.90
38726;DHT22;24474;48.906;8.808;2023-11-19T08:28:09;12.30;99.90
38726;DHT22;24474;48.906;8.808;2023-11-19T08:30:35;12.50;99.90
38726;DHT22;24474;48.906;8.808;2023-11-19T08:33:01;12.50;99.90
38726;DHT22;24474;48.906;8.808;2023-11-19T08:35:28;12.60;99.90
38726;DHT22;24474;48.906;8.808;2023-11-19T08:37:54;12.60;99.90
38726;DHT22;24474;48.906;8.808;2023-11-19T08:40:20;12.60;99.90
38726;DHT22;24474;48.906;8.808;2023-11-19T08:42:46;12.60;99.90
38726;DHT22;24474;48.906;8.808;2023-11-19T08:45:11;12.70;99.90
38726;DHT22;24474;48.906;8.808;2023-11-19T08:47:37;12.70;99.90
38726;DHT22;24474;48.906;8.808;2023-11-19T08:50:03;12.70;99.90
38726;DHT22;24474;48.906;8.808;2023-11-19T08:52:30;12.70;99.90
38726;DHT22;24474;48.906;8.808;2023-11-19T08:54:56;12.80;99.90
38726;DHT22;24474;48.906;8.808;2023-11-19T08:57:21;12.80;99.90
38726;DHT22;24474;48.906;8.808;2023-11-19T08:59:47;12.90;99.90
38726;DHT22;24474;48.906;8.808;2023-11-19T09:02:13;12.90;99.90
38726;DHT22;24474;48.906;8.808;2023-11-19T09:04:38;12.90;99.90
38726;DHT22;24474;48.906;8.808;2023-11-19T09:07:04;13.00;99.90
38726;DHT22;24474;48.906;8.808;2023-11-19T09:09:29;13.00;99.90
38726;DHT22;24474;48.906;8.808;2023-11-19T09:11:55;13.10;99.90
38726;DHT22;24474;48.906;8.808;2023-11-19T09:14:21;13.00;99.90
38726;DHT22;24474;48.906;8.808;2023-11-19T09:16:51;13.10;99.90
38726;DHT22;24474;48.906;8.808;2023-11-19T09:19:17;13.10;99.90
38726;DHT22;24474;48.906;8.808;2023-11-19T09:21:44;13.00;99.90
38726;DHT22;24474;48.906;8.808;2023-11-19T09:24:10;13.00;99.90
38726;DHT22;24474;48.906;8.808;2023-11-19T09:26:36;13.00;99.90
38726;DHT22;24474;48.906;8.808;2023-11-19T09:29:02;13.00;99.90
38726;DHT22;24474;48.906;8.808;2023-11-19T09:31:27;13.00;99.90
38726;DHT22;24474;48.906;8.808;2023-11-19T09:33:53;13.00;99.90
38726;DHT22;24474;48.906;8.808;2023-11-19T09:36:18;13.00;99.90
38726;DHT22;24474;48.906;8.808;2023-11-19T09:38:45;13.10;99.90
38726;DHT22;24474;48.906;8.808;2023-11-19T09:41:11;13.00;99.90
38726;DHT22;24474;48.906;8.808;2023-11-19T09:43:42;13.00;99.90
38726;DHT22;24474;48.906;8.808;2023-11-19T09:46:13;13.10;99.90
38726;DHT22;24474;48.906;8.808;2023-11-19T09:48:40;13.20;99.90
38726;DHT22;24474;48.906;8.808;2023-11-19T09:51:08;13.20;99.90
38726;DHT22;24474;48.906;8.808;2023-11-19T09:53:36;13.30;99.90
38726;DHT22;24474;48.906;8.808;2023-11-19T09:56:04;13.40;99.90
38726;DHT22;24474;48.906;8.808;2023-11-19T09:58:31;13.40;99.90
38726;DHT22;24474;48.906;8.808;2023-11-19T10:01:00;13.50;99.90
38726;DHT22;24474;48.906;8.808;2023-11-19T10:03:33;13.50;99.90
38726;DHT22;24474;48.906;8.808;2023-11-19T10:06:01;13.50;99.90
38726;DHT22;24474;48.906;8.808;2023-11-19T10:08:27;13.60;99.90
38726;DHT22;24474;48.906;8.808;2023-11-19T10:10:52;13.60;99.90
38726;DHT22;24474;48.906;8.808;2023-11-19T10:13:18;13.70;99.90
38726;DHT22;24474;48.906;8.808;2023-11-19T10:15:44;13.70;99.90
38726;DHT22;24474;48.906;8.808;2023-11-19T10:18:10;13.70;99.90
38726;DHT22;24474;48.906;8.808;2023-11-19T10:20:45;13.70;99.90
38726;DHT22;24474;48.906;8.808;2023-11-19T10:23:11;13.70;99.90
38726;DHT22;24474;48.906;8.808;2023-11-19T10:25:37;13.80;99.90
38726;DHT22;24474;48.906;8.808;2023-11-19T10:28:03;13.80;99.90
38726;DHT22;24474;48.906;8.808;2023-11-19T10:30:30;13.80;99.90
38726;DHT22;24474;48.906;8.808;2023-11-19T10:33:10;13.90;99.90
38726;DHT22;24474;48.906;8.808;2023-11-19T10:35:50;13.90;99.90
38726;DHT22;24474;48.906;8.808;2023-11-19T10:38:18;13.90;99.90
38726;DHT22;24474;48.906;8.808;2023-11-19T10:40:44;14.00;99.90
38726;DHT22;24474;48.906;8.808;2023-11-19T10:43:10;14.00;99.90
38726;DHT22;24474;48.906;8.808;2023-11-19T10:45:37;14.10;99.90
38726;DHT22;24474;48.906;8.808;2023-11-19T10:48:04;14.10;99.90
38726;DHT22;24474;48.906;8.808;2023-11-19T10:50:37;14.10;99.90
38726;DHT22;24474;48.906;8.808;2023-11-19T10:53:03;14.10;99.90
38726;DHT22;24474;48.906;8.808;2023-11-19T10:55:34;14.10;99.90
38726;DHT22;24474;48.906;8.808;2023-11-19T11:00:54;14.10;99.90
38726;DHT22;24474;48.906;8.808;2023-11-19T11:03:25;14.10;99.90
38726;DHT22;24474;48.906;8.808;2023-11-19T11:05:52;14.10;99.90
38726;DHT22;24474;48.906;8.808;2023-11-19T11:08:19;14.20;99.90
38726;DHT22;24474;48.906;8.808;2023-11-19T11:10:53;14.20;99.90
38726;DHT22;24474;48.906;8.808;2023-11-19T11:13:19;14.20;99.90
38726;DHT22;24474;48.906;8.808;2023-11-19T11:15:45;14.20;99.90
38726;DHT22;24474;48.906;8.808;2023-11-19T11:18:12;14.30;99.90
38726;DHT22;24474;48.906;8.808;2023-11-19T11:20:39;14.30;99.90
38726;DHT22;24474;48.906;8.808;2023-11-19T11:28:57;14.40;99.90
38726;DHT22;24474;48.906;8.808;2023-11-19T11:32:05;14.30;99.90
38726;DHT22;24474;48.906;8.808;2023-11-19T11:35:01;14.30;99.90
38726;DHT22;24474;48.906;8.808;2023-11-19T11:37:42;14.40;99.90
38726;DHT22;24474;48.906;8.808;2023-11-19T11:40:15;14.40;99.90
38726;DHT22;24474;48.906;8.808;2023-11-19T11:42:42;14.40;99.90
38726;DHT22;24474;48.906;8.808;2023-11-19T11:45:16;14.50;99.90
38726;DHT22;24474;48.906;8.808;2023-11-19T11:50:16;14.60;99.90
38726;DHT22;24474;48.906;8.808;2023-11-19T11:58:18;14.70;99.90
38726;DHT22;24474;48.906;8.808;2023-11-19T12:00:46;14.70;99.90
38726;DHT22;24474;48.906;8.808;2023-11-19T12:03:12;14.70;99.90
38726;DHT22;24474;48.906;8.808;2023-11-19T12:05:43;14.70;99.90
38726;DHT22;24474;48.906;8.808;2023-11-19T12:08:10;14.70;99.90
38726;DHT22;24474;48.906;8.808;2023-11-19T12:10:48;14.70;99.90
38726;DHT22;24474;48.906;8.808;2023-11-19T12:13:15;14.60;99.90
38726;DHT22;24474;48.906;8.808;2023-11-19T12:18:28;14.60;99.90
38726;DHT22;24474;48.906;8.808;2023-11-19T12:20:55;14.60;99.90
38726;DHT22;24474;48.906;8.808;2023-11-19T12:23:25;14.60;99.90
38726;DHT22;24474;48.906;8.808;2023-11-19T12:25:51;14.50;99.90
38726;DHT22;24474;48.906;8.808;2023-11-19T12:28:17;14.60;99.90
38726;DHT22;24474;48.906;8.808;2023-11-19T12:30:43;14.60;99.90
38726;DHT22;24474;48.906;8.808;2023-11-19T12:33:14;14.60;99.90
38726;DHT22;24474;48.906;8.808;2023-11-19T12:35:44;14.60;99.90
38726;DHT22;24474;48.906;8.808;2023-11-19T12:38:20;14.60;99.90
38726;DHT22;24474;48.906;8.808;2023-11-19T12:41:08;14.60;99.90
38726;DHT22;24474;48.906;8.808;2023-11-19T12:43:36;14.60;99.90
38726;DHT22;24474;48.906;8.808;2023-11-19T12:46:19;14.60;99.90
38726;DHT22;24474;48.906;8.808;2023-11-19T12:48:50;14.50;99.90
38726;DHT22;24474;48.906;8.808;2023-11-19T12:51:17;14.50;99.90
38726;DHT22;24474;48.906;8.808;2023-11-19T12:53:51;14.50;99.90
38726;DHT22;24474;48.906;8.808;2023-11-19T12:56:22;14.40;99.90
38726;DHT22;24474;48.906;8.808;2023-11-19T12:58:48;14.40;99.90
38726;DHT22;24474;48.906;8.808;2023-11-19T13:01:20;14.40;99.90
38726;DHT22;24474;48.906;8.808;2023-11-19T13:03:46;14.40;99.90
38726;DHT22;24474;48.906;8.808;2023-11-19T13:06:14;14.50;99.90
38726;DHT22;24474;48.906;8.808;2023-11-19T13:08:50;14.50;99.90
38726;DHT22;24474;48.906;8.808;2023-11-19T13:11:32;14.40;99.90
38726;DHT22;24474;48.906;8.808;2023-11-19T13:14:03;14.40;99.90
38726;DHT22;24474;48.906;8.808;2023-11-19T13:16:36;14.40;99.90
38726;DHT22;24474;48.906;8.808;2023-11-19T13:19:02;14.40;99.90
38726;DHT22;24474;48.906;8.808;2023-11-19T13:21:28;14.40;99.90
38726;DHT22;24474;48.906;8.808;2023-11-19T13:23:59;14.50;99.90
38726;DHT22;24474;48.906;8.808;2023-11-19T13:26:24;14.40;99.90
38726;DHT22;24474;48.906;8.808;2023-11-19T13:28:50;14.50;99.90
38726;DHT22;24474;48.906;8.808;2023-11-19T13:31:16;14.40;99.90
38726;DHT22;24474;48.906;8.808;2023-11-19T13:33:42;14.40;99.90
38726;DHT22;24474;48.906;8.808;2023-11-19T13:36:08;14.40;99.90
38726;DHT22;24474;48.906;8.808;2023-11-19T13:38:35;14.40;99.90
38726;DHT22;24474;48.906;8.808;2023-11-19T13:41:02;14.30;99.90
38726;DHT22;24474;48.906;8.808;2023-11-19T13:43:28;14.30;99.90
38726;DHT22;24474;48.906;8.808;2023-11-19T13:45:54;14.30;99.90
38726;DHT22;24474;48.906;8.808;2023-11-19T13:48:20;14.30;99.90
38726;DHT22;24474;48.906;8.808;2023-11-19T13:50:46;14.30;99.90
38726;DHT22;24474;48.906;8.808;2023-11-19T13:53:12;14.30;99.90
38726;DHT22;24474;48.906;8.808;2023-11-19T13:55:38;14.30;99.90
38726;DHT22;24474;48.906;8.808;2023-11-19T13:58:03;14.30;99.90
38726;DHT22;24474;48.906;8.808;2023-11-19T14:00:29;14.30;99.90
38726;DHT22;24474;48.906;8.808;2023-11-19T14:02:54;14.30;99.90
38726;DHT22;24474;48.906;8.808;2023-11-19T14:05:20;14.30;99.90
38726;DHT22;24474;48.906;8.808;2023-11-19T14:07:46;14.30;99.90
38726;DHT22;24474;48.906;8.808;2023-11-19T14:10:14;14.30;99.90
38726;DHT22;24474;48.906;8.808;2023-11-19T14:12:41;14.30;99.90
38726;DHT22;24474;48.906;8.808;2023-11-19T14:15:08;14.30;99.90
38726;DHT22;24474;48.906;8.808;2023-11-19T14:17:41;14.30;99.90
38726;DHT22;24474;48.906;8.808;2023-11-19T14:20:06;14.30;99.90
38726;DHT22;24474;48.906;8.808;2023-11-19T14:22:42;14.30;99.90
38726;DHT22;24474;48.906;8.808;2023-11-19T14:25:09;14.30;99.90
38726;DHT22;24474;48.906;8.808;2023-11-19T14:27:41;14.20;99.90
38726;DHT22;24474;48.906;8.808;2023-11-19T14:30:11;14.20;99.90
38726;DHT22;24474;48.906;8.808;2023-11-19T14:32:40;14.20;99.90
38726;DHT22;24474;48.906;8.808;2023-11-19T14:35:08;14.20;99.90
38726;DHT22;24474;48.906;8.808;2023-11-19T14:37:33;14.20;99.90
38726;DHT22;24474;48.906;8.808;2023-11-19T14:40:00;14.20;99.90
38726;DHT22;24474;48.906;8.808;2023-11-19T14:42:26;14.20;99.90
38726;DHT22;24474;48.906;8.808;2023-11-19T14:44:52;14.10;99.90
38726;DHT22;24474;48.906;8.808;2023-11-19T14:47:26;14.10;99.90
38726;DHT22;24474;48.906;8.808;2023-11-19T14:49:52;14.10;99.90
38726;DHT22;24474;48.906;8.808;2023-11-19T14:52:17;14.10;99.90
38726;DHT22;24474;48.906;8.808;2023-11-19T14:54:43;14.10;99.90
38726;DHT22;24474;48.906;8.808;2023-11-19T14:57:09;14.10;99.90
38726;DHT22;24474;48.906;8.808;2023-11-19T14:59:35;14.00;99.90
38726;DHT22;24474;48.906;8.808;2023-11-19T15:02:01;14.00;99.90
38726;DHT22;24474;48.906;8.808;2023-11-19T15:04:28;14.00;99.90
38726;DHT22;24474;48.906;8.808;2023-11-19T15:06:53;13.90;99.90
38726;DHT22;24474;48.906;8.808;2023-11-19T15:09:19;14.00;99.90
38726;DHT22;24474;48.906;8.808;2023-11-19T15:11:46;13.90;99.90
38726;DHT22;24474;48.906;8.808;2023-11-19T15:14:13;13.80;99.90
38726;DHT22;24474;48.906;8.808;2023-11-19T15:16:47;13.80;99.90
38726;DHT22;24474;48.906;8.808;2023-11-19T15:19:13;13.80;99.90
38726;DHT22;24474;48.906;8.808;2023-11-19T15:21:40;13.80;99.90
38726;DHT22;24474;48.906;8.808;2023-11-19T15:24:06;13.80;99.90
38726;DHT22;24474;48.906;8.808;2023-11-19T15:26:36;13.70;99.90
38726;DHT22;24474;48.906;8.808;2023-11-19T15:29:03;13.70;99.90
38726;DHT22;24474;48.906;8.808;2023-11-19T15:31:29;13.70;99.90
38726;DHT22;24474;48.906;8.808;2023-11-19T15:33:55;13.60;99.90
38726;DHT22;24474;48.906;8.808;2023-11-19T15:36:20;13.60;99.90
38726;DHT22;24474;48.906;8.808;2023-11-19T15:38:46;13.60;99.90
38726;DHT22;24474;48.906;8.808;2023-11-19T15:41:12;13.60;99.90
38726;DHT22;24474;48.906;8.808;2023-11-19T15:43:38;13.50;99.90
38726;DHT22;24474;48.906;8.808;2023-11-19T15:46:07;13.50;99.90
38726;DHT22;24474;48.906;8.808;2023-11-19T15:48:33;13.50;99.90
38726;DHT22;24474;48.906;8.808;2023-11-19T15:50:58;13.40;99.90
38726;DHT22;24474;48.906;8.808;2023-11-19T15:53:25;13.40;99.90
38726;DHT22;24474;48.906;8.808;2023-11-19T15:55:50;13.40;99.90